RYR1C EGFF-EIDW
Flight info
| Callsign | RYR1C |
|---|---|
| Flight time | N/A |
| Altitude | 24000 |
| Route | BCN P4 FELCA L9 NICXI M17 VATRY VATRY3R |
| Aircraft | B738/M-SDGIJ1LRWY/SB1 |
Departure
| Time | 2026-04-28 13:03 |
|---|---|
| Airport | Cardiff International Airport (EGFF) |
Arrival
| Time | N/A |
|---|---|
| Airport | Dublin Airport (EIDW) |
| Time | Latitude | Longitude | Altitude | Speed | Heading |
|---|---|---|---|---|---|
| 2026-04-28 12:41 | 51.39772 | -3.33881 | 229 ft | 0 kts | 82° |
| 2026-04-28 12:46 | 51.39771 | -3.33900 | 229 ft | 2 kts | 82° |
| 2026-04-28 12:46 | 51.39769 | -3.33919 | 229 ft | 0 kts | 82° |
| 2026-04-28 12:46 | 51.39765 | -3.33939 | 229 ft | 2 kts | 53° |
| 2026-04-28 12:47 | 51.39753 | -3.33954 | 229 ft | 2 kts | 20° |
| 2026-04-28 12:47 | 51.39738 | -3.33957 | 229 ft | 2 kts | 347° |
| 2026-04-28 12:47 | 51.39725 | -3.33946 | 229 ft | 2 kts | 315° |
| 2026-04-28 12:47 | 51.39720 | -3.33936 | 229 ft | 1 kts | 297° |
| 2026-04-28 12:48 | 51.39717 | -3.33927 | 229 ft | 0 kts | 297° |
| 2026-04-28 12:59 | 51.39722 | -3.33940 | 229 ft | 4 kts | 297° |
| 2026-04-28 13:00 | 51.39751 | -3.34035 | 229 ft | 14 kts | 297° |
| 2026-04-28 13:00 | 51.39807 | -3.34211 | 229 ft | 18 kts | 297° |
| 2026-04-28 13:00 | 51.39867 | -3.34400 | 229 ft | 20 kts | 298° |
| 2026-04-28 13:00 | 51.39932 | -3.34605 | 229 ft | 21 kts | 297° |
| 2026-04-28 13:01 | 51.39992 | -3.34810 | 229 ft | 18 kts | 297° |
| 2026-04-28 13:01 | 51.40045 | -3.34993 | 229 ft | 16 kts | 301° |
| 2026-04-28 13:01 | 51.40105 | -3.35154 | 229 ft | 16 kts | 300° |
| 2026-04-28 13:01 | 51.40151 | -3.35303 | 229 ft | 13 kts | 287° |
| 2026-04-28 13:02 | 51.40147 | -3.35432 | 229 ft | 10 kts | 248° |
| 2026-04-28 13:02 | 51.40083 | -3.35525 | 229 ft | 14 kts | 205° |
| 2026-04-28 13:02 | 51.40023 | -3.35476 | 229 ft | 18 kts | 121° |
| 2026-04-28 13:02 | 51.39925 | -3.35143 | 229 ft | 56 kts | 111° |
| 2026-04-28 13:03 | 51.39649 | -3.34289 | 229 ft | 114 kts | 117° |
| 2026-04-28 13:03 | 51.39213 | -3.32925 | 264 ft | 155 kts | 116° |
| 2026-04-28 13:03 | 51.38693 | -3.31461 | 777 ft | 157 kts | 116° |
| 2026-04-28 13:03 | 51.38145 | -3.29934 | 1373 ft | 158 kts | 116° |
| 2026-04-28 13:04 | 51.37601 | -3.28455 | 1981 ft | 156 kts | 116° |
| 2026-04-28 13:04 | 51.37023 | -3.26989 | 2488 ft | 157 kts | 116° |
| 2026-04-28 13:04 | 51.36432 | -3.25523 | 3021 ft | 157 kts | 116° |
| 2026-04-28 13:04 | 51.35836 | -3.24068 | 3519 ft | 158 kts | 116° |
| 2026-04-28 13:05 | 51.35241 | -3.22606 | 4013 ft | 158 kts | 116° |
| 2026-04-28 13:05 | 51.34645 | -3.21130 | 4489 ft | 159 kts | 115° |
| 2026-04-28 13:05 | 51.34344 | -3.19419 | 4662 ft | 174 kts | 79° |
| 2026-04-28 13:05 | 51.34875 | -3.17600 | 4936 ft | 193 kts | 46° |
| 2026-04-28 13:06 | 51.36161 | -3.16677 | 5173 ft | 225 kts | 7° |
| 2026-04-28 13:06 | 51.37829 | -3.17032 | 5443 ft | 253 kts | 354° |
| 2026-04-28 13:06 | 51.39583 | -3.17587 | 5951 ft | 263 kts | 354° |
| 2026-04-28 13:06 | 51.41381 | -3.18105 | 6647 ft | 266 kts | 355° |
| 2026-04-28 13:07 | 51.43214 | -3.18601 | 7359 ft | 269 kts | 355° |
| 2026-04-28 13:07 | 51.45068 | -3.19093 | 8099 ft | 271 kts | 355° |
| 2026-04-28 13:07 | 51.46905 | -3.19573 | 8746 ft | 274 kts | 355° |
| 2026-04-28 13:07 | 51.48793 | -3.20069 | 9454 ft | 275 kts | 355° |
| 2026-04-28 13:08 | 51.50653 | -3.20564 | 10173 ft | 275 kts | 355° |
| 2026-04-28 13:08 | 51.52547 | -3.21062 | 10774 ft | 283 kts | 356° |
| 2026-04-28 13:08 | 51.54561 | -3.21579 | 10931 ft | 306 kts | 356° |
| 2026-04-28 13:08 | 51.56692 | -3.22134 | 11577 ft | 311 kts | 356° |
| 2026-04-28 13:09 | 51.58828 | -3.22701 | 12267 ft | 314 kts | 356° |
| 2026-04-28 13:09 | 51.60961 | -3.23263 | 13007 ft | 316 kts | 356° |
| 2026-04-28 13:09 | 51.63126 | -3.23832 | 13714 ft | 319 kts | 356° |
| 2026-04-28 13:09 | 51.65337 | -3.24413 | 14466 ft | 320 kts | 356° |
| 2026-04-28 13:10 | 51.67518 | -3.24987 | 15155 ft | 324 kts | 357° |
| 2026-04-28 13:10 | 51.69747 | -3.25579 | 15893 ft | 326 kts | 355° |
| 2026-04-28 13:10 | 51.71915 | -3.26761 | 16510 ft | 343 kts | 337° |
| 2026-04-28 13:10 | 51.73737 | -3.29356 | 17183 ft | 364 kts | 313° |
| 2026-04-28 13:11 | 51.75069 | -3.32830 | 17864 ft | 372 kts | 307° |
| 2026-04-28 13:11 | 51.76345 | -3.36506 | 18417 ft | 377 kts | 307° |
| 2026-04-28 13:11 | 51.77636 | -3.40192 | 19051 ft | 380 kts | 307° |
| 2026-04-28 13:11 | 51.78945 | -3.43888 | 19614 ft | 384 kts | 308° |
| 2026-04-28 13:12 | 51.80292 | -3.47658 | 20202 ft | 387 kts | 308° |
| 2026-04-28 13:12 | 51.81541 | -3.51488 | 20792 ft | 394 kts | 304° |
| 2026-04-28 13:12 | 51.82598 | -3.55634 | 21337 ft | 404 kts | 296° |